createdAt,value
2023-03-06T00:01:33.008Z,98842.42
2023-03-06T00:04:05.465Z,98843.37
2023-03-06T00:06:37.759Z,98850.34
2023-03-06T00:09:11.019Z,98853.18
2023-03-06T00:11:43.418Z,98858.63
2023-03-06T00:14:16.220Z,98850.20
2023-03-06T00:16:48.375Z,98853.59
2023-03-06T00:19:20.666Z,98847.91
2023-03-06T00:21:53.016Z,98849.26
2023-03-06T00:24:25.497Z,98851.77
2023-03-06T00:26:57.954Z,98849.00
2023-03-06T00:29:30.298Z,98849.35
2023-03-06T00:32:03.168Z,98842.26
2023-03-06T00:34:35.388Z,98839.82
2023-03-06T00:37:07.702Z,98836.27
2023-03-06T00:39:39.935Z,98838.59
2023-03-06T00:42:12.185Z,98835.92
2023-03-06T00:44:44.586Z,98840.06
2023-03-06T00:47:17.468Z,98840.32
2023-03-06T00:49:49.830Z,98836.35
2023-03-06T00:52:22.104Z,98835.02
2023-03-06T00:54:54.618Z,98830.37
2023-03-06T00:57:26.872Z,98825.39
2023-03-06T00:59:59.317Z,98823.04
2023-03-06T01:02:31.589Z,98825.02
2023-03-06T01:05:03.686Z,98821.91
2023-03-06T01:07:37.252Z,98819.88
2023-03-06T01:10:11.584Z,98821.11
2023-03-06T01:12:43.902Z,98817.69
2023-03-06T01:15:16.702Z,98823.80
2023-03-06T01:17:48.885Z,98825.38
2023-03-06T01:20:21.370Z,98826.83
2023-03-06T01:22:55.805Z,98820.57
2023-03-06T01:25:28.544Z,98823.80
2023-03-06T01:28:00.872Z,98820.97
2023-03-06T01:30:34.066Z,98822.66
2023-03-06T01:33:06.921Z,98818.33
2023-03-06T01:35:41.060Z,98815.50
2023-03-06T01:38:13.430Z,98807.70
2023-03-06T01:40:45.807Z,98808.06
2023-03-06T01:43:30.454Z,98801.40
2023-03-06T01:46:38.922Z,98805.79
2023-03-06T01:49:18.002Z,98804.32
2023-03-06T01:51:54.131Z,98797.27
2023-03-06T01:54:29.717Z,98801.52
2023-03-06T01:57:08.786Z,98797.38
2023-03-06T01:59:43.784Z,98790.82
2023-03-06T02:02:17.690Z,98800.96
2023-03-06T02:04:50.100Z,98792.19
2023-03-06T02:07:24.551Z,98802.21
2023-03-06T02:09:56.785Z,98794.73
2023-03-06T02:12:30.355Z,98784.64
2023-03-06T02:15:02.494Z,98792.30
2023-03-06T02:17:37.324Z,98790.78
2023-03-06T02:20:17.617Z,98793.28
2023-03-06T02:22:58.382Z,98790.46
2023-03-06T02:25:39.664Z,98780.80
2023-03-06T02:28:14.116Z,98782.39
2023-03-06T02:30:48.966Z,98784.00
2023-03-06T02:33:24.748Z,98782.09
2023-03-06T02:35:59.376Z,98785.77
2023-03-06T02:38:34.337Z,98779.80
2023-03-06T02:41:09.986Z,98778.37
2023-03-06T02:43:44.706Z,98787.69
2023-03-06T02:46:17.137Z,98786.23
2023-03-06T02:48:49.313Z,98788.61
2023-03-06T02:51:21.899Z,98787.43
2023-03-06T02:53:54.932Z,98782.31
2023-03-06T02:56:27.301Z,98783.70
2023-03-06T02:58:59.638Z,98778.78
2023-03-06T03:01:33.169Z,98777.46
2023-03-06T03:04:05.504Z,98771.89
2023-03-06T03:06:38.224Z,98768.69
2023-03-06T03:09:10.880Z,98765.91
2023-03-06T03:11:42.977Z,98762.63
2023-03-06T03:14:16.828Z,98760.20
2023-03-06T03:16:50.545Z,98762.16
2023-03-06T03:19:23.128Z,98756.58
2023-03-06T03:21:55.946Z,98762.88
2023-03-06T03:24:29.221Z,98766.75
2023-03-06T03:27:01.509Z,98760.85
2023-03-06T03:29:33.738Z,98756.85
2023-03-06T03:32:06.961Z,98759.33
2023-03-06T03:34:39.141Z,98751.11
2023-03-06T03:37:11.573Z,98746.81
2023-03-06T03:39:43.778Z,98746.34
2023-03-06T03:42:16.909Z,98734.18
2023-03-06T03:44:49.557Z,98728.02
2023-03-06T03:47:22.281Z,98727.35
2023-03-06T03:49:54.717Z,98729.52
2023-03-06T03:52:27.590Z,98722.16
2023-03-06T03:55:00.061Z,98709.59
2023-03-06T03:57:32.638Z,98705.09
2023-03-06T04:00:05.663Z,98705.52
2023-03-06T04:02:50.796Z,98703.00
2023-03-06T04:05:30.216Z,98704.00
2023-03-06T04:08:03.438Z,98703.81
2023-03-06T04:10:37.310Z,98703.20
2023-03-06T04:13:10.138Z,98700.55
2023-03-06T04:15:45.072Z,98698.88
2023-03-06T04:18:17.838Z,98698.04
2023-03-06T04:20:50.942Z,98693.49
2023-03-06T04:23:24.364Z,98694.26
2023-03-06T04:25:56.650Z,98690.48
2023-03-06T04:28:28.813Z,98696.80
2023-03-06T04:31:01.592Z,98696.73
2023-03-06T04:33:34.889Z,98689.77
2023-03-06T04:36:07.745Z,98685.83
2023-03-06T04:38:39.973Z,98679.02
2023-03-06T04:41:12.209Z,98674.26
2023-03-06T04:43:44.477Z,98668.33
2023-03-06T04:46:16.591Z,98665.48
2023-03-06T04:48:48.707Z,98666.98
2023-03-06T04:51:20.923Z,98659.86
2023-03-06T04:53:54.172Z,98661.92
2023-03-06T04:56:26.380Z,98665.27
2023-03-06T04:58:58.683Z,98661.38
2023-03-06T05:01:30.841Z,98662.55
2023-03-06T05:04:03.005Z,98660.42
2023-03-06T05:06:35.152Z,98658.57
2023-03-06T05:09:07.580Z,98660.05
2023-03-06T05:11:39.727Z,98653.98
2023-03-06T05:14:14.126Z,98650.32
2023-03-06T05:16:46.225Z,98647.30
2023-03-06T05:19:18.393Z,98644.05
2023-03-06T05:21:50.675Z,98641.32
2023-03-06T05:24:22.888Z,98641.52
2023-03-06T05:26:55.109Z,98638.30
2023-03-06T05:29:27.377Z,98637.79
2023-03-06T05:32:00.128Z,98641.40
2023-03-06T05:34:32.537Z,98639.86
2023-03-06T05:37:04.812Z,98641.04
2023-03-06T05:39:37.003Z,98638.23
2023-03-06T05:42:09.560Z,98634.37
2023-03-06T05:44:42.308Z,98638.09
2023-03-06T05:47:14.667Z,98637.30
2023-03-06T05:49:46.718Z,98639.73
2023-03-06T05:52:18.918Z,98637.30
2023-03-06T05:54:53.274Z,98639.02
2023-03-06T05:57:26.423Z,98637.02
2023-03-06T05:59:58.789Z,98636.85
2023-03-06T06:02:30.946Z,98638.42
2023-03-06T06:05:04.422Z,98639.48
2023-03-06T06:07:37.062Z,98642.05
2023-03-06T06:10:12.328Z,98642.22
2023-03-06T06:12:44.711Z,98643.59
2023-03-06T06:15:16.978Z,98642.80
2023-03-06T06:17:49.135Z,98648.42
2023-03-06T06:20:21.773Z,98647.86
2023-03-06T06:22:54.095Z,98650.20
2023-03-06T06:25:26.357Z,98651.02
2023-03-06T06:27:59.412Z,98650.08
2023-03-06T06:30:32.044Z,98652.67
2023-03-06T06:33:04.174Z,98651.04
2023-03-06T06:35:39.447Z,98653.34
2023-03-06T06:38:11.764Z,98653.98
2023-03-06T06:40:58.415Z,98656.40
2023-03-06T06:43:39.358Z,98659.30
2023-03-06T06:46:49.719Z,98664.68
2023-03-06T06:49:04.714Z,98660.30
2023-03-06T06:51:37.514Z,98659.94
2023-03-06T06:54:10.896Z,98661.08
2023-03-06T06:56:43.138Z,98659.02
2023-03-06T06:59:17.157Z,98663.19
2023-03-06T07:01:49.812Z,98662.27
2023-03-06T07:04:22.546Z,98664.52
2023-03-06T07:06:58.175Z,98661.50
2023-03-06T07:09:32.424Z,98659.13
2023-03-06T07:12:05.075Z,98664.58
2023-03-06T07:14:39.622Z,98662.47
2023-03-06T07:17:12.094Z,98661.23
2023-03-06T07:19:44.361Z,98665.46
2023-03-06T07:22:16.998Z,98664.43
2023-03-06T07:24:49.235Z,98665.61
2023-03-06T07:27:23.191Z,98661.89
2023-03-06T07:29:55.454Z,98666.94
2023-03-06T07:32:27.962Z,98663.89
2023-03-06T07:35:17.599Z,98663.79
2023-03-06T07:37:51.970Z,98664.86
2023-03-06T07:40:24.819Z,98664.88
2023-03-06T07:43:12.991Z,98668.51
2023-03-06T07:46:01.571Z,98667.95
2023-03-06T07:48:34.395Z,98666.72
2023-03-06T07:51:09.684Z,98669.65
2023-03-06T07:53:41.855Z,98671.34
2023-03-06T07:56:15.208Z,98671.84
2023-03-06T07:58:49.101Z,98669.70
2023-03-06T08:01:24.476Z,98667.66
2023-03-06T08:03:59.172Z,98667.84
2023-03-06T08:06:31.967Z,98668.04
2023-03-06T08:09:04.929Z,98666.84
2023-03-06T08:11:37.021Z,98666.51
2023-03-06T08:14:09.256Z,98665.40
2023-03-06T08:16:41.410Z,98666.21
2023-03-06T08:19:13.520Z,98668.52
2023-03-06T08:21:45.891Z,98667.25
2023-03-06T08:24:18.748Z,98664.67
2023-03-06T08:26:51.112Z,98668.83
2023-03-06T08:29:23.547Z,98666.91
2023-03-06T08:31:56.405Z,98668.55
2023-03-06T08:34:28.890Z,98669.39
2023-03-06T08:37:01.022Z,98664.80
2023-03-06T08:39:33.227Z,98667.42
2023-03-06T08:42:06.248Z,98664.66
2023-03-06T08:44:38.898Z,98663.95
2023-03-06T08:47:11.269Z,98668.27
2023-03-06T08:49:43.473Z,98666.27
2023-03-06T08:52:17.253Z,98661.86
2023-03-06T08:54:49.814Z,98666.30
2023-03-06T08:57:22.117Z,98666.02
2023-03-06T08:59:54.298Z,98666.99
2023-03-06T09:02:26.614Z,98667.81
2023-03-06T09:04:59.681Z,98666.08
2023-03-06T09:07:32.364Z,98665.45
2023-03-06T09:10:05.153Z,98664.68
2023-03-06T09:12:49.885Z,98663.75
2023-03-06T09:15:24.395Z,98665.73
2023-03-06T09:17:56.717Z,98662.14
2023-03-06T09:20:29.105Z,98663.11
2023-03-06T09:23:01.309Z,98660.05
2023-03-06T09:25:33.412Z,98662.20
2023-03-06T09:28:11.707Z,98661.77
2023-03-06T09:30:45.959Z,98656.86
2023-03-06T09:33:19.191Z,98655.63
2023-03-06T09:35:53.864Z,98655.36
2023-03-06T09:38:27.917Z,98651.60
2023-03-06T09:41:09.783Z,98650.67
2023-03-06T09:43:44.455Z,98650.33
2023-03-06T09:46:24.654Z,98646.21
2023-03-06T09:49:13.678Z,98647.66
2023-03-06T09:51:56.881Z,98641.03
2023-03-06T09:54:38.878Z,98632.90
2023-03-06T09:57:19.935Z,98630.30
2023-03-06T09:59:56.182Z,98625.11
2023-03-06T10:02:34.683Z,98627.30
2023-03-06T10:05:13.417Z,98622.41
2023-03-06T10:07:52.089Z,98626.13
2023-03-06T10:10:27.424Z,98627.78
2023-03-06T10:13:07.783Z,98622.20
2023-03-06T10:15:46.300Z,98622.38
2023-03-06T10:18:18.825Z,98618.58
2023-03-06T10:20:59.453Z,98615.45
2023-03-06T10:23:50.891Z,98613.73
2023-03-06T10:26:28.746Z,98613.66
2023-03-06T10:29:19.134Z,98609.09
2023-03-06T10:32:01.315Z,98607.06
2023-03-06T10:34:38.510Z,98600.61
2023-03-06T10:37:20.664Z,98600.95
2023-03-06T10:39:58.704Z,98601.02
2023-03-06T10:42:31.438Z,98602.23
2023-03-06T10:45:13.794Z,98598.05
2023-03-06T10:47:46.843Z,98595.48
2023-03-06T10:50:29.106Z,98600.34
2023-03-06T10:53:05.406Z,98593.59
2023-03-06T10:55:39.170Z,98592.61
2023-03-06T10:58:24.162Z,98589.77
2023-03-06T11:01:09.648Z,98584.28
2023-03-06T11:03:41.916Z,98577.67
2023-03-06T11:06:16.262Z,98576.52
2023-03-06T11:08:48.686Z,98572.16
2023-03-06T11:11:37.044Z,98568.45
2023-03-06T11:14:17.901Z,98568.14
2023-03-06T11:16:53.652Z,98558.52
2023-03-06T11:19:29.336Z,98552.88
2023-03-06T11:22:09.656Z,98548.92
2023-03-06T11:24:45.628Z,98546.26
2023-03-06T11:27:30.495Z,98543.14
2023-03-06T11:30:05.524Z,98537.23
2023-03-06T11:32:46.347Z,98528.95
2023-03-06T11:35:24.924Z,98526.91
2023-03-06T11:38:01.692Z,98518.45
2023-03-06T11:40:38.593Z,98518.38
2023-03-06T11:43:23.495Z,98514.49
2023-03-06T11:46:03.632Z,98514.14
2023-03-06T11:48:42.430Z,98506.62
2023-03-06T11:51:20.491Z,98500.14
2023-03-06T11:53:53.298Z,98500.67
2023-03-06T11:56:33.076Z,98492.15
2023-03-06T11:59:29.291Z,98493.31
2023-03-06T12:02:17.787Z,98490.20
2023-03-06T12:05:01.716Z,98487.55
2023-03-06T12:07:39.347Z,98485.37
2023-03-06T12:10:23.775Z,98482.23
2023-03-06T12:13:20.856Z,98478.84
2023-03-06T12:16:36.339Z,98476.92
2023-03-06T12:19:26.668Z,98475.89
2023-03-06T12:22:18.983Z,98468.02
2023-03-06T12:25:05.796Z,98472.98
2023-03-06T12:27:49.213Z,98471.31
2023-03-06T12:30:37.254Z,98467.17
2023-03-06T12:33:21.798Z,98460.84
2023-03-06T12:36:14.965Z,98461.40
2023-03-06T12:39:07.245Z,98459.17
2023-03-06T12:41:57.937Z,98460.69
2023-03-06T12:44:48.114Z,98453.23
2023-03-06T12:47:24.558Z,98448.36
2023-03-06T12:50:01.980Z,98443.11
2023-03-06T12:52:36.279Z,98445.02
2023-03-06T12:55:15.922Z,98447.02
2023-03-06T12:57:49.153Z,98454.86
2023-03-06T13:00:55.273Z,98451.86
2023-03-06T13:03:36.767Z,98450.79
2023-03-06T13:06:49.903Z,98450.14
2023-03-06T13:09:35.431Z,98445.04
2023-03-06T13:12:22.311Z,98447.33
2023-03-06T13:15:00.236Z,98450.61
2023-03-06T13:17:41.699Z,98456.69
2023-03-06T13:20:44.275Z,98452.90
2023-03-06T13:23:50.898Z,98453.52
2023-03-06T13:27:00.486Z,98454.77
2023-03-06T13:30:22.027Z,98453.61
2023-03-06T13:32:55.639Z,98452.75
2023-03-06T13:35:57.851Z,98453.19
2023-03-06T13:38:54.268Z,98458.95
2023-03-06T13:41:54.995Z,98455.19
2023-03-06T13:44:51.243Z,98457.15
2023-03-06T13:50:50.061Z,98459.08
2023-03-06T13:53:52.914Z,98462.18
2023-03-06T13:56:50.185Z,98457.46
2023-03-06T14:00:03.124Z,98456.73
2023-03-06T14:03:20.006Z,98454.79
2023-03-06T14:05:55.394Z,98452.63
2023-03-06T14:08:30.059Z,98441.40
2023-03-06T14:11:07.048Z,98441.27
2023-03-06T14:13:47.514Z,98437.16
2023-03-06T14:16:24.884Z,98433.42
2023-03-06T14:18:58.980Z,98440.77
2023-03-06T14:21:38.253Z,98436.08
2023-03-06T14:24:18.983Z,98439.30
2023-03-06T14:26:53.104Z,98440.27
2023-03-06T14:29:27.822Z,98441.90
2023-03-06T14:32:01.998Z,98440.06
2023-03-06T14:34:41.311Z,98443.33
2023-03-06T14:37:23.248Z,98443.80
2023-03-06T14:39:56.420Z,98442.10
2023-03-06T14:42:30.137Z,98436.58
2023-03-06T14:45:16.090Z,98438.27
2023-03-06T14:47:52.850Z,98437.41
2023-03-06T14:50:28.014Z,98436.44
2023-03-06T14:53:04.354Z,98433.92
2023-03-06T14:55:36.767Z,98431.95
2023-03-06T14:58:16.954Z,98430.45
2023-03-06T15:00:55.328Z,98433.02
2023-03-06T15:03:35.032Z,98428.27
2023-03-06T15:06:08.691Z,98430.41
2023-03-06T15:08:49.779Z,98430.80
2023-03-06T15:11:23.017Z,98429.58
2023-03-06T15:14:05.568Z,98428.79
2023-03-06T15:16:36.390Z,98424.94
2023-03-06T15:19:18.486Z,98426.80
2023-03-06T15:21:52.896Z,98426.76
2023-03-06T15:24:36.216Z,98422.88
2023-03-06T15:27:18.613Z,98422.66
2023-03-06T15:29:49.414Z,98428.88
2023-03-06T15:32:35.194Z,98425.48
2023-03-06T15:35:29.865Z,98427.67
2023-03-06T15:38:03.129Z,98433.81
2023-03-06T15:40:35.615Z,98430.36
2023-03-06T15:43:13.246Z,98427.90
2023-03-06T15:45:45.415Z,98431.27
2023-03-06T15:48:20.043Z,98430.52
2023-03-06T15:50:52.228Z,98434.52
2023-03-06T15:53:24.559Z,98435.80
2023-03-06T15:55:57.829Z,98434.23
2023-03-06T15:58:36.763Z,98428.44
2023-03-06T16:01:09.538Z,98429.41
2023-03-06T16:03:41.675Z,98429.23
2023-03-06T16:06:19.585Z,98430.05
2023-03-06T16:08:52.106Z,98430.98
2023-03-06T16:11:35.394Z,98432.16
2023-03-06T16:14:18.918Z,98433.65
2023-03-06T16:16:51.569Z,98430.97
2023-03-06T16:19:27.377Z,98428.49
2023-03-06T16:22:00.249Z,98425.50
2023-03-06T16:24:32.494Z,98430.30
2023-03-06T16:27:05.074Z,98436.17
2023-03-06T16:29:37.387Z,98433.52
2023-03-06T16:32:12.355Z,98431.05
2023-03-06T16:34:44.489Z,98435.80
2023-03-06T16:37:17.237Z,98440.10
2023-03-06T16:39:49.519Z,98435.34
2023-03-06T16:42:23.417Z,98434.46
2023-03-06T16:44:55.633Z,98437.20
2023-03-06T16:47:27.801Z,98438.73
2023-03-06T16:50:02.198Z,98434.27
2023-03-06T16:52:34.547Z,98432.48
2023-03-06T16:55:07.121Z,98435.05
2023-03-06T16:57:39.384Z,98442.17
2023-03-06T17:00:13.758Z,98441.15
2023-03-06T17:02:49.177Z,98442.46
2023-03-06T17:05:22.066Z,98443.02
2023-03-06T17:07:54.616Z,98444.64
2023-03-06T17:10:27.404Z,98440.08
2023-03-06T17:13:00.598Z,98442.96
2023-03-06T17:15:33.243Z,98443.97
2023-03-06T17:18:05.865Z,98447.75
2023-03-06T17:20:38.687Z,98450.99
2023-03-06T17:23:10.826Z,98451.55
2023-03-06T17:25:43.076Z,98450.77
2023-03-06T17:28:15.684Z,98454.73
2023-03-06T17:30:47.880Z,98455.76
2023-03-06T17:33:20.032Z,98454.20
2023-03-06T17:35:52.134Z,98456.27
2023-03-06T17:38:24.337Z,98453.09
2023-03-06T17:40:56.595Z,98454.77
2023-03-06T17:43:28.806Z,98454.42
2023-03-06T17:46:05.498Z,98455.77
2023-03-06T17:48:37.974Z,98457.50
2023-03-06T17:51:10.824Z,98455.73
2023-03-06T17:53:43.073Z,98454.96
2023-03-06T17:56:16.782Z,98458.86
2023-03-06T17:58:49.092Z,98456.45
2023-03-06T18:01:23.355Z,98454.34
2023-03-06T18:03:56.467Z,98451.85
2023-03-06T18:06:30.464Z,98450.89
2023-03-06T18:09:03.878Z,98450.55
2023-03-06T18:11:37.344Z,98454.56
2023-03-06T18:14:10.761Z,98453.66
2023-03-06T18:16:43.154Z,98456.13
2023-03-06T18:19:16.654Z,98455.69
2023-03-06T18:21:49.192Z,98455.21
2023-03-06T18:24:21.631Z,98457.23
2023-03-06T18:26:53.994Z,98458.43
2023-03-06T18:29:26.211Z,98453.09
2023-03-06T18:31:59.470Z,98460.67
2023-03-06T18:34:32.081Z,98461.57
2023-03-06T18:37:04.338Z,98464.09
2023-03-06T18:39:36.648Z,98460.77
2023-03-06T18:42:12.415Z,98456.15
2023-03-06T18:44:47.939Z,98458.73
2023-03-06T18:47:20.473Z,98456.76
2023-03-06T18:49:53.205Z,98454.17
2023-03-06T18:52:25.842Z,98453.52
2023-03-06T18:54:58.513Z,98459.10
2023-03-06T18:57:31.382Z,98457.23
2023-03-06T19:00:03.720Z,98453.95
2023-03-06T19:02:36.105Z,98451.90
2023-03-06T19:05:10.987Z,98449.25
2023-03-06T19:07:43.628Z,98449.90
2023-03-06T19:10:16.067Z,98449.48
2023-03-06T19:12:48.473Z,98449.09
2023-03-06T19:15:20.941Z,98450.08
2023-03-06T19:17:53.514Z,98452.71
2023-03-06T19:20:27.014Z,98453.95
2023-03-06T19:22:59.241Z,98451.27
2023-03-06T19:25:31.621Z,98454.61
2023-03-06T19:28:04.162Z,98455.30
2023-03-06T19:30:38.396Z,98454.76
2023-03-06T19:33:10.684Z,98461.85
2023-03-06T19:35:43.048Z,98459.67
2023-03-06T19:38:15.335Z,98463.29
2023-03-06T19:40:52.801Z,98460.73
2023-03-06T19:43:25.193Z,98456.80
2023-03-06T19:45:57.926Z,98458.58
2023-03-06T19:48:30.175Z,98459.96
2023-03-06T19:51:07.782Z,98456.02
2023-03-06T19:53:40.708Z,98452.50
2023-03-06T19:56:16.123Z,98451.95
2023-03-06T19:58:48.452Z,98456.03
2023-03-06T20:01:22.534Z,98453.48
2023-03-06T20:03:59.089Z,98449.08
2023-03-06T20:06:36.782Z,98450.27
2023-03-06T20:09:10.442Z,98447.31
2023-03-06T20:11:42.654Z,98455.13
2023-03-06T20:14:15.561Z,98453.07
2023-03-06T20:16:47.728Z,98453.17
2023-03-06T20:19:22.024Z,98451.91
2023-03-06T20:21:54.345Z,98455.76
2023-03-06T20:24:26.677Z,98458.94
2023-03-06T20:26:59.602Z,98460.04
2023-03-06T20:29:31.710Z,98466.40
2023-03-06T20:32:03.886Z,98468.33
2023-03-06T20:34:39.097Z,98469.39
2023-03-06T20:37:12.045Z,98468.45
2023-03-06T20:39:44.368Z,98469.26
2023-03-06T20:42:17.847Z,98466.85
2023-03-06T20:44:49.918Z,98466.68
2023-03-06T20:47:22.168Z,98466.35
2023-03-06T20:49:54.368Z,98469.58
2023-03-06T20:52:26.552Z,98469.23
2023-03-06T20:54:58.744Z,98469.45
2023-03-06T20:57:31.010Z,98464.91
2023-03-06T21:00:04.059Z,98467.04
2023-03-06T21:02:36.533Z,98466.45
2023-03-06T21:05:10.024Z,98463.46
2023-03-06T21:07:42.217Z,98462.39
2023-03-06T21:10:15.404Z,98460.58
2023-03-06T21:12:47.495Z,98459.20
2023-03-06T21:15:20.322Z,98460.00
2023-03-06T21:17:52.492Z,98457.55
2023-03-06T21:20:27.456Z,98458.71
2023-03-06T21:23:03.751Z,98455.23
2023-03-06T21:25:34.598Z,98451.39
2023-03-06T21:28:06.848Z,98449.18
2023-03-06T21:30:39.074Z,98450.96
2023-03-06T21:33:11.762Z,98450.59
2023-03-06T21:35:44.790Z,98448.23
2023-03-06T21:38:17.585Z,98452.96
2023-03-06T21:40:49.893Z,98447.44
2023-03-06T21:43:21.999Z,98450.83
2023-03-06T21:45:57.647Z,98450.13
2023-03-06T21:48:29.936Z,98449.09
2023-03-06T21:51:11.549Z,98449.83
2023-03-06T21:53:47.050Z,98448.74
2023-03-06T21:56:23.356Z,98447.98
2023-03-06T21:58:54.287Z,98448.64
2023-03-06T22:01:28.529Z,98443.09
2023-03-06T22:04:01.232Z,98441.58
2023-03-06T22:06:34.068Z,98442.41
2023-03-06T22:09:06.393Z,98444.94
2023-03-06T22:11:38.815Z,98442.23
2023-03-06T22:14:10.924Z,98440.19
2023-03-06T22:16:43.067Z,98439.48
2023-03-06T22:19:15.851Z,98432.50
2023-03-06T22:21:48.024Z,98433.32
2023-03-06T22:24:20.183Z,98433.36
2023-03-06T22:26:52.338Z,98431.45
2023-03-06T22:29:25.039Z,98434.61
2023-03-06T22:31:57.177Z,98434.15
2023-03-06T22:34:29.549Z,98435.52
2023-03-06T22:37:02.111Z,98436.32
2023-03-06T22:39:34.554Z,98434.45
2023-03-06T22:42:07.494Z,98433.23
2023-03-06T22:44:39.668Z,98429.45
2023-03-06T22:47:11.932Z,98430.83
2023-03-06T22:49:44.196Z,98426.30
2023-03-06T22:52:19.657Z,98429.80
2023-03-06T22:54:51.894Z,98428.39
2023-03-06T22:57:24.095Z,98426.16
2023-03-06T22:59:56.465Z,98423.15
2023-03-06T23:02:33.055Z,98424.51
2023-03-06T23:05:05.491Z,98420.78
2023-03-06T23:07:37.632Z,98418.23
2023-03-06T23:10:11.485Z,98416.18
2023-03-06T23:13:03.399Z,98422.42
2023-03-06T23:15:54.639Z,98418.98
2023-03-06T23:18:45.477Z,98423.10
2023-03-06T23:21:36.406Z,98422.85
2023-03-06T23:24:28.808Z,98422.98
2023-03-06T23:27:01.030Z,98422.38
2023-03-06T23:29:33.207Z,98423.61
2023-03-06T23:32:05.710Z,98421.77
2023-03-06T23:34:38.006Z,98420.92
2023-03-06T23:37:10.166Z,98428.26
2023-03-06T23:39:42.603Z,98427.97
2023-03-06T23:42:14.971Z,98434.65
2023-03-06T23:44:47.349Z,98434.30
2023-03-06T23:47:20.157Z,98429.38
2023-03-06T23:49:52.268Z,98426.59
2023-03-06T23:52:24.508Z,98417.25
2023-03-06T23:54:56.780Z,98417.73
2023-03-06T23:57:30.314Z,98417.68
